sensor_id;sensor_type;location;lat;lon;timestamp;P1;P2;P0
46681;PMS5003;34101;53.430;-2.224;2023-08-06T00:00:00;6;6;
46681;PMS5003;34101;53.430;-2.224;2023-08-06T00:02:27;7;5;
46681;PMS5003;34101;53.430;-2.224;2023-08-06T00:04:54;6;4;
46681;PMS5003;34101;53.430;-2.224;2023-08-06T00:07:22;4;4;
46681;PMS5003;34101;53.430;-2.224;2023-08-06T00:09:49;6;5;
46681;PMS5003;34101;53.430;-2.224;2023-08-06T00:12:17;6;6;
46681;PMS5003;34101;53.430;-2.224;2023-08-06T00:14:44;7;7;
46681;PMS5003;34101;53.430;-2.224;2023-08-06T00:17:12;9;8;
46681;PMS5003;34101;53.430;-2.224;2023-08-06T00:19:39;7;7;
46681;PMS5003;34101;53.430;-2.224;2023-08-06T00:22:06;5;5;
46681;PMS5003;34101;53.430;-2.224;2023-08-06T00:24:34;5;5;
46681;PMS5003;34101;53.430;-2.224;2023-08-06T00:27:01;6;6;
46681;PMS5003;34101;53.430;-2.224;2023-08-06T00:29:29;5;5;
46681;PMS5003;34101;53.430;-2.224;2023-08-06T00:31:56;5;5;
46681;PMS5003;34101;53.430;-2.224;2023-08-06T00:34:24;6;6;
46681;PMS5003;34101;53.430;-2.224;2023-08-06T00:36:51;6;6;
46681;PMS5003;34101;53.430;-2.224;2023-08-06T00:39:19;5;5;
46681;PMS5003;34101;53.430;-2.224;2023-08-06T00:41:46;5;5;
46681;PMS5003;34101;53.430;-2.224;2023-08-06T00:44:13;5;5;
46681;PMS5003;34101;53.430;-2.224;2023-08-06T00:46:41;5;5;
46681;PMS5003;34101;53.430;-2.224;2023-08-06T00:49:08;3;3;
46681;PMS5003;34101;53.430;-2.224;2023-08-06T00:51:36;4;4;
46681;PMS5003;34101;53.430;-2.224;2023-08-06T00:54:04;5;5;
46681;PMS5003;34101;53.430;-2.224;2023-08-06T00:56:31;4;3;
46681;PMS5003;34101;53.430;-2.224;2023-08-06T00:59:01;4;4;
46681;PMS5003;34101;53.430;-2.224;2023-08-06T01:01:29;6;6;
46681;PMS5003;34101;53.430;-2.224;2023-08-06T01:03:56;6;4;
46681;PMS5003;34101;53.430;-2.224;2023-08-06T01:06:28;3;3;
46681;PMS5003;34101;53.430;-2.224;2023-08-06T01:09:07;7;7;
46681;PMS5003;34101;53.430;-2.224;2023-08-06T01:11:49;5;4;
46681;PMS5003;34101;53.430;-2.224;2023-08-06T01:14:28;6;5;
46681;PMS5003;34101;53.430;-2.224;2023-08-06T01:16:58;5;4;
46681;PMS5003;34101;53.430;-2.224;2023-08-06T01:19:27;4;4;
46681;PMS5003;34101;53.430;-2.224;2023-08-06T01:21:55;3;3;
46681;PMS5003;34101;53.430;-2.224;2023-08-06T01:24:22;4;4;
46681;PMS5003;34101;53.430;-2.224;2023-08-06T01:26:52;9;6;
46681;PMS5003;34101;53.430;-2.224;2023-08-06T01:29:29;8;6;
46681;PMS5003;34101;53.430;-2.224;2023-08-06T01:32:00;8;8;
46681;PMS5003;34101;53.430;-2.224;2023-08-06T01:34:31;7;7;
46681;PMS5003;34101;53.430;-2.224;2023-08-06T01:37:00;6;6;
46681;PMS5003;34101;53.430;-2.224;2023-08-06T01:39:28;7;7;
46681;PMS5003;34101;53.430;-2.224;2023-08-06T01:41:59;5;5;
46681;PMS5003;34101;53.430;-2.224;2023-08-06T01:44:26;7;7;
46681;PMS5003;34101;53.430;-2.224;2023-08-06T01:46:54;6;6;
46681;PMS5003;34101;53.430;-2.224;2023-08-06T01:49:21;5;5;
46681;PMS5003;34101;53.430;-2.224;2023-08-06T01:51:49;9;8;
46681;PMS5003;34101;53.430;-2.224;2023-08-06T01:54:16;9;9;
46681;PMS5003;34101;53.430;-2.224;2023-08-06T01:56:44;7;6;
46681;PMS5003;34101;53.430;-2.224;2023-08-06T01:59:11;9;7;
46681;PMS5003;34101;53.430;-2.224;2023-08-06T02:02:41;7;7;
46681;PMS5003;34101;53.430;-2.224;2023-08-06T02:05:08;6;6;
46681;PMS5003;34101;53.430;-2.224;2023-08-06T02:07:37;5;5;
46681;PMS5003;34101;53.430;-2.224;2023-08-06T02:10:05;7;7;
46681;PMS5003;34101;53.430;-2.224;2023-08-06T02:12:33;8;7;
46681;PMS5003;34101;53.430;-2.224;2023-08-06T02:15:00;8;8;
46681;PMS5003;34101;53.430;-2.224;2023-08-06T02:17:28;9;9;
46681;PMS5003;34101;53.430;-2.224;2023-08-06T02:19:55;6;6;
46681;PMS5003;34101;53.430;-2.224;2023-08-06T02:22:22;10;8;
46681;PMS5003;34101;53.430;-2.224;2023-08-06T02:24:50;7;7;
46681;PMS5003;34101;53.430;-2.224;2023-08-06T02:27:17;7;7;
46681;PMS5003;34101;53.430;-2.224;2023-08-06T02:29:45;8;7;
46681;PMS5003;34101;53.430;-2.224;2023-08-06T02:32:12;8;8;
46681;PMS5003;34101;53.430;-2.224;2023-08-06T02:34:40;7;7;
46681;PMS5003;34101;53.430;-2.224;2023-08-06T02:37:07;12;10;
46681;PMS5003;34101;53.430;-2.224;2023-08-06T02:39:35;11;10;
46681;PMS5003;34101;53.430;-2.224;2023-08-06T02:42:03;8;8;
46681;PMS5003;34101;53.430;-2.224;2023-08-06T02:44:31;8;8;
46681;PMS5003;34101;53.430;-2.224;2023-08-06T02:46:59;10;10;
46681;PMS5003;34101;53.430;-2.224;2023-08-06T02:49:26;10;10;
46681;PMS5003;34101;53.430;-2.224;2023-08-06T02:51:53;10;9;
46681;PMS5003;34101;53.430;-2.224;2023-08-06T02:54:21;7;7;
46681;PMS5003;34101;53.430;-2.224;2023-08-06T02:56:48;9;7;
46681;PMS5003;34101;53.430;-2.224;2023-08-06T02:59:16;8;8;
46681;PMS5003;34101;53.430;-2.224;2023-08-06T03:01:43;10;8;
46681;PMS5003;34101;53.430;-2.224;2023-08-06T03:04:11;8;8;
46681;PMS5003;34101;53.430;-2.224;2023-08-06T03:06:38;8;6;
46681;PMS5003;34101;53.430;-2.224;2023-08-06T03:09:06;7;7;
46681;PMS5003;34101;53.430;-2.224;2023-08-06T03:11:33;8;8;
46681;PMS5003;34101;53.430;-2.224;2023-08-06T03:14:00;9;8;
46681;PMS5003;34101;53.430;-2.224;2023-08-06T03:16:28;9;8;
46681;PMS5003;34101;53.430;-2.224;2023-08-06T03:18:56;9;8;
46681;PMS5003;34101;53.430;-2.224;2023-08-06T03:21:24;9;9;
46681;PMS5003;34101;53.430;-2.224;2023-08-06T03:23:51;8;7;
46681;PMS5003;34101;53.430;-2.224;2023-08-06T03:26:19;10;8;
46681;PMS5003;34101;53.430;-2.224;2023-08-06T03:28:46;10;8;
46681;PMS5003;34101;53.430;-2.224;2023-08-06T03:31:13;7;6;
46681;PMS5003;34101;53.430;-2.224;2023-08-06T03:33:43;8;8;
46681;PMS5003;34101;53.430;-2.224;2023-08-06T03:36:10;10;8;
46681;PMS5003;34101;53.430;-2.224;2023-08-06T03:38:38;6;6;
46681;PMS5003;34101;53.430;-2.224;2023-08-06T03:41:05;10;10;
46681;PMS5003;34101;53.430;-2.224;2023-08-06T03:43:32;8;8;
46681;PMS5003;34101;53.430;-2.224;2023-08-06T03:46:00;10;8;
46681;PMS5003;34101;53.430;-2.224;2023-08-06T03:48:27;8;8;
46681;PMS5003;34101;53.430;-2.224;2023-08-06T03:50:55;7;7;
46681;PMS5003;34101;53.430;-2.224;2023-08-06T03:53:23;8;8;
46681;PMS5003;34101;53.430;-2.224;2023-08-06T03:55:50;9;7;
46681;PMS5003;34101;53.430;-2.224;2023-08-06T03:58:17;9;9;
46681;PMS5003;34101;53.430;-2.224;2023-08-06T04:00:44;9;9;
46681;PMS5003;34101;53.430;-2.224;2023-08-06T04:03:12;7;7;
46681;PMS5003;34101;53.430;-2.224;2023-08-06T04:05:39;6;6;
46681;PMS5003;34101;53.430;-2.224;2023-08-06T04:08:07;8;8;
46681;PMS5003;34101;53.430;-2.224;2023-08-06T04:10:34;9;7;
46681;PMS5003;34101;53.430;-2.224;2023-08-06T04:13:01;7;7;
46681;PMS5003;34101;53.430;-2.224;2023-08-06T04:15:29;6;6;
46681;PMS5003;34101;53.430;-2.224;2023-08-06T04:17:56;9;9;
46681;PMS5003;34101;53.430;-2.224;2023-08-06T04:20:23;7;7;
46681;PMS5003;34101;53.430;-2.224;2023-08-06T04:22:53;6;6;
46681;PMS5003;34101;53.430;-2.224;2023-08-06T04:25:21;10;9;
46681;PMS5003;34101;53.430;-2.224;2023-08-06T04:27:48;8;8;
46681;PMS5003;34101;53.430;-2.224;2023-08-06T04:30:16;8;8;
46681;PMS5003;34101;53.430;-2.224;2023-08-06T04:32:43;6;6;
46681;PMS5003;34101;53.430;-2.224;2023-08-06T04:35:11;9;9;
46681;PMS5003;34101;53.430;-2.224;2023-08-06T04:37:39;8;8;
46681;PMS5003;34101;53.430;-2.224;2023-08-06T04:40:06;10;10;
46681;PMS5003;34101;53.430;-2.224;2023-08-06T04:42:34;8;8;
46681;PMS5003;34101;53.430;-2.224;2023-08-06T04:45:01;9;9;
46681;PMS5003;34101;53.430;-2.224;2023-08-06T04:47:30;8;8;
46681;PMS5003;34101;53.430;-2.224;2023-08-06T04:49:57;7;7;
46681;PMS5003;34101;53.430;-2.224;2023-08-06T04:52:24;8;8;
46681;PMS5003;34101;53.430;-2.224;2023-08-06T04:54:52;6;6;
46681;PMS5003;34101;53.430;-2.224;2023-08-06T04:57:19;8;7;
46681;PMS5003;34101;53.430;-2.224;2023-08-06T04:59:47;11;10;
46681;PMS5003;34101;53.430;-2.224;2023-08-06T05:02:14;8;8;
46681;PMS5003;34101;53.430;-2.224;2023-08-06T05:04:42;10;8;
46681;PMS5003;34101;53.430;-2.224;2023-08-06T05:07:10;6;6;
46681;PMS5003;34101;53.430;-2.224;2023-08-06T05:09:37;10;10;
46681;PMS5003;34101;53.430;-2.224;2023-08-06T05:12:05;11;9;
46681;PMS5003;34101;53.430;-2.224;2023-08-06T05:14:33;9;9;
46681;PMS5003;34101;53.430;-2.224;2023-08-06T05:17:00;8;8;
46681;PMS5003;34101;53.430;-2.224;2023-08-06T05:19:28;9;9;
46681;PMS5003;34101;53.430;-2.224;2023-08-06T05:21:56;10;9;
46681;PMS5003;34101;53.430;-2.224;2023-08-06T05:24:24;11;11;
46681;PMS5003;34101;53.430;-2.224;2023-08-06T05:26:51;11;10;
46681;PMS5003;34101;53.430;-2.224;2023-08-06T05:29:18;11;11;
46681;PMS5003;34101;53.430;-2.224;2023-08-06T05:31:46;10;10;
46681;PMS5003;34101;53.430;-2.224;2023-08-06T05:34:13;14;12;
46681;PMS5003;34101;53.430;-2.224;2023-08-06T05:36:41;13;11;
46681;PMS5003;34101;53.430;-2.224;2023-08-06T05:39:08;10;10;
46681;PMS5003;34101;53.430;-2.224;2023-08-06T05:41:35;11;10;
46681;PMS5003;34101;53.430;-2.224;2023-08-06T05:44:03;10;10;
46681;PMS5003;34101;53.430;-2.224;2023-08-06T05:46:30;10;10;
46681;PMS5003;34101;53.430;-2.224;2023-08-06T05:48:58;11;9;
46681;PMS5003;34101;53.430;-2.224;2023-08-06T05:51:26;12;11;
46681;PMS5003;34101;53.430;-2.224;2023-08-06T05:53:54;12;10;
46681;PMS5003;34101;53.430;-2.224;2023-08-06T05:56:21;9;9;
46681;PMS5003;34101;53.430;-2.224;2023-08-06T05:58:48;12;12;
46681;PMS5003;34101;53.430;-2.224;2023-08-06T06:01:15;10;10;
46681;PMS5003;34101;53.430;-2.224;2023-08-06T06:03:43;8;8;
46681;PMS5003;34101;53.430;-2.224;2023-08-06T06:06:10;12;9;
46681;PMS5003;34101;53.430;-2.224;2023-08-06T06:08:37;12;12;
46681;PMS5003;34101;53.430;-2.224;2023-08-06T06:11:05;9;8;
46681;PMS5003;34101;53.430;-2.224;2023-08-06T06:13:32;11;11;
46681;PMS5003;34101;53.430;-2.224;2023-08-06T06:15:59;9;9;
46681;PMS5003;34101;53.430;-2.224;2023-08-06T06:18:27;8;8;
46681;PMS5003;34101;53.430;-2.224;2023-08-06T06:20:54;10;10;
46681;PMS5003;34101;53.430;-2.224;2023-08-06T06:23:22;9;9;
46681;PMS5003;34101;53.430;-2.224;2023-08-06T06:25:49;10;10;
46681;PMS5003;34101;53.430;-2.224;2023-08-06T06:28:16;9;9;
46681;PMS5003;34101;53.430;-2.224;2023-08-06T06:30:44;9;9;
46681;PMS5003;34101;53.430;-2.224;2023-08-06T06:33:11;9;9;
46681;PMS5003;34101;53.430;-2.224;2023-08-06T06:35:39;12;10;
46681;PMS5003;34101;53.430;-2.224;2023-08-06T06:38:06;8;8;
46681;PMS5003;34101;53.430;-2.224;2023-08-06T06:40:33;8;8;
46681;PMS5003;34101;53.430;-2.224;2023-08-06T06:43:01;10;10;
46681;PMS5003;34101;53.430;-2.224;2023-08-06T06:45:29;9;8;
46681;PMS5003;34101;53.430;-2.224;2023-08-06T06:47:56;12;10;
46681;PMS5003;34101;53.430;-2.224;2023-08-06T06:50:24;12;9;
46681;PMS5003;34101;53.430;-2.224;2023-08-06T06:52:51;8;8;
46681;PMS5003;34101;53.430;-2.224;2023-08-06T06:55:19;9;9;
46681;PMS5003;34101;53.430;-2.224;2023-08-06T06:57:46;11;11;
46681;PMS5003;34101;53.430;-2.224;2023-08-06T07:00:14;9;9;
46681;PMS5003;34101;53.430;-2.224;2023-08-06T07:02:41;10;9;
46681;PMS5003;34101;53.430;-2.224;2023-08-06T07:05:10;8;8;
46681;PMS5003;34101;53.430;-2.224;2023-08-06T07:07:37;8;8;
46681;PMS5003;34101;53.430;-2.224;2023-08-06T07:10:05;7;7;
46681;PMS5003;34101;53.430;-2.224;2023-08-06T07:12:33;9;7;
46681;PMS5003;34101;53.430;-2.224;2023-08-06T07:15:00;10;9;
46681;PMS5003;34101;53.430;-2.224;2023-08-06T07:17:28;9;8;
46681;PMS5003;34101;53.430;-2.224;2023-08-06T07:19:55;7;7;
46681;PMS5003;34101;53.430;-2.224;2023-08-06T07:22:22;8;7;
46681;PMS5003;34101;53.430;-2.224;2023-08-06T07:24:50;5;5;
46681;PMS5003;34101;53.430;-2.224;2023-08-06T07:27:17;8;8;
46681;PMS5003;34101;53.430;-2.224;2023-08-06T07:29:45;8;8;
46681;PMS5003;34101;53.430;-2.224;2023-08-06T07:32:12;6;6;
46681;PMS5003;34101;53.430;-2.224;2023-08-06T07:34:40;7;7;
46681;PMS5003;34101;53.430;-2.224;2023-08-06T07:37:07;7;7;
46681;PMS5003;34101;53.430;-2.224;2023-08-06T07:39:34;6;6;
46681;PMS5003;34101;53.430;-2.224;2023-08-06T07:42:02;9;8;
46681;PMS5003;34101;53.430;-2.224;2023-08-06T07:44:30;7;6;
46681;PMS5003;34101;53.430;-2.224;2023-08-06T07:46:58;6;5;
46681;PMS5003;34101;53.430;-2.224;2023-08-06T07:49:26;7;6;
46681;PMS5003;34101;53.430;-2.224;2023-08-06T07:51:53;10;7;
46681;PMS5003;34101;53.430;-2.224;2023-08-06T07:54:21;7;7;
46681;PMS5003;34101;53.430;-2.224;2023-08-06T07:56:48;3;3;
46681;PMS5003;34101;53.430;-2.224;2023-08-06T07:59:15;7;7;
46681;PMS5003;34101;53.430;-2.224;2023-08-06T08:01:44;6;6;
46681;PMS5003;34101;53.430;-2.224;2023-08-06T08:04:11;5;5;
46681;PMS5003;34101;53.430;-2.224;2023-08-06T08:06:39;7;5;
46681;PMS5003;34101;53.430;-2.224;2023-08-06T08:09:06;6;6;
46681;PMS5003;34101;53.430;-2.224;2023-08-06T08:11:33;6;6;
46681;PMS5003;34101;53.430;-2.224;2023-08-06T08:14:01;4;4;
46681;PMS5003;34101;53.430;-2.224;2023-08-06T08:16:29;5;4;
46681;PMS5003;34101;53.430;-2.224;2023-08-06T08:18:57;5;5;
46681;PMS5003;34101;53.430;-2.224;2023-08-06T08:21:24;4;4;
46681;PMS5003;34101;53.430;-2.224;2023-08-06T08:23:51;3;3;
46681;PMS5003;34101;53.430;-2.224;2023-08-06T08:26:19;5;5;
46681;PMS5003;34101;53.430;-2.224;2023-08-06T08:28:46;6;5;
46681;PMS5003;34101;53.430;-2.224;2023-08-06T08:31:14;5;5;
46681;PMS5003;34101;53.430;-2.224;2023-08-06T08:33:41;3;3;
46681;PMS5003;34101;53.430;-2.224;2023-08-06T08:36:09;5;5;
46681;PMS5003;34101;53.430;-2.224;2023-08-06T08:38:36;4;4;
46681;PMS5003;34101;53.430;-2.224;2023-08-06T08:41:03;3;3;
46681;PMS5003;34101;53.430;-2.224;2023-08-06T08:43:31;5;5;
46681;PMS5003;34101;53.430;-2.224;2023-08-06T08:46:00;4;4;
46681;PMS5003;34101;53.430;-2.224;2023-08-06T08:48:28;2;2;
46681;PMS5003;34101;53.430;-2.224;2023-08-06T08:50:56;3;2;
46681;PMS5003;34101;53.430;-2.224;2023-08-06T08:53:24;2;2;
46681;PMS5003;34101;53.430;-2.224;2023-08-06T08:55:53;3;3;
46681;PMS5003;34101;53.430;-2.224;2023-08-06T08:58:21;2;2;
46681;PMS5003;34101;53.430;-2.224;2023-08-06T09:00:49;4;3;
46681;PMS5003;34101;53.430;-2.224;2023-08-06T09:03:18;2;2;
46681;PMS5003;34101;53.430;-2.224;2023-08-06T09:05:45;1;1;
46681;PMS5003;34101;53.430;-2.224;2023-08-06T09:08:18;4;4;
46681;PMS5003;34101;53.430;-2.224;2023-08-06T09:10:47;2;2;
46681;PMS5003;34101;53.430;-2.224;2023-08-06T09:13:15;3;3;
46681;PMS5003;34101;53.430;-2.224;2023-08-06T09:15:43;2;2;
46681;PMS5003;34101;53.430;-2.224;2023-08-06T09:18:10;2;2;
46681;PMS5003;34101;53.430;-2.224;2023-08-06T09:20:39;2;2;
46681;PMS5003;34101;53.430;-2.224;2023-08-06T09:23:07;2;1;
46681;PMS5003;34101;53.430;-2.224;2023-08-06T09:25:40;2;2;
46681;PMS5003;34101;53.430;-2.224;2023-08-06T09:28:07;2;2;
46681;PMS5003;34101;53.430;-2.224;2023-08-06T09:30:36;2;2;
46681;PMS5003;34101;53.430;-2.224;2023-08-06T09:33:04;3;3;
46681;PMS5003;34101;53.430;-2.224;2023-08-06T09:35:36;2;2;
46681;PMS5003;34101;53.430;-2.224;2023-08-06T09:38:06;2;2;
46681;PMS5003;34101;53.430;-2.224;2023-08-06T09:40:35;2;2;
46681;PMS5003;34101;53.430;-2.224;2023-08-06T09:43:07;2;2;
46681;PMS5003;34101;53.430;-2.224;2023-08-06T09:45:36;2;2;
46681;PMS5003;34101;53.430;-2.224;2023-08-06T09:48:04;2;2;
46681;PMS5003;34101;53.430;-2.224;2023-08-06T09:50:34;3;3;
46681;PMS5003;34101;53.430;-2.224;2023-08-06T09:53:03;2;2;
46681;PMS5003;34101;53.430;-2.224;2023-08-06T09:55:31;1;1;
46681;PMS5003;34101;53.430;-2.224;2023-08-06T09:57:59;2;2;
46681;PMS5003;34101;53.430;-2.224;2023-08-06T10:00:27;3;2;
46681;PMS5003;34101;53.430;-2.224;2023-08-06T10:02:55;1;1;
46681;PMS5003;34101;53.430;-2.224;2023-08-06T10:05:26;1;1;
46681;PMS5003;34101;53.430;-2.224;2023-08-06T10:07:55;0;0;
46681;PMS5003;34101;53.430;-2.224;2023-08-06T10:10:23;2;2;
46681;PMS5003;34101;53.430;-2.224;2023-08-06T10:12:54;2;2;
46681;PMS5003;34101;53.430;-2.224;2023-08-06T10:15:26;2;2;
46681;PMS5003;34101;53.430;-2.224;2023-08-06T10:17:56;3;3;
46681;PMS5003;34101;53.430;-2.224;2023-08-06T10:20:24;1;1;
46681;PMS5003;34101;53.430;-2.224;2023-08-06T10:23:07;3;3;
46681;PMS5003;34101;53.430;-2.224;2023-08-06T10:25:35;3;3;
46681;PMS5003;34101;53.430;-2.224;2023-08-06T10:28:07;4;3;
46681;PMS5003;34101;53.430;-2.224;2023-08-06T10:30:41;2;2;
46681;PMS5003;34101;53.430;-2.224;2023-08-06T10:33:08;2;2;
46681;PMS5003;34101;53.430;-2.224;2023-08-06T10:35:36;0;0;
46681;PMS5003;34101;53.430;-2.224;2023-08-06T10:38:07;2;2;
46681;PMS5003;34101;53.430;-2.224;2023-08-06T10:40:35;3;1;
46681;PMS5003;34101;53.430;-2.224;2023-08-06T10:43:04;1;1;
46681;PMS5003;34101;53.430;-2.224;2023-08-06T10:45:31;2;2;
46681;PMS5003;34101;53.430;-2.224;2023-08-06T10:48:02;1;1;
46681;PMS5003;34101;53.430;-2.224;2023-08-06T10:50:30;2;2;
46681;PMS5003;34101;53.430;-2.224;2023-08-06T10:52:58;3;3;
46681;PMS5003;34101;53.430;-2.224;2023-08-06T10:55:31;5;4;
46681;PMS5003;34101;53.430;-2.224;2023-08-06T10:57:58;2;2;
46681;PMS5003;34101;53.430;-2.224;2023-08-06T11:00:27;3;3;
46681;PMS5003;34101;53.430;-2.224;2023-08-06T11:02:54;3;3;
46681;PMS5003;34101;53.430;-2.224;2023-08-06T11:05:21;3;3;
46681;PMS5003;34101;53.430;-2.224;2023-08-06T11:07:49;4;3;
46681;PMS5003;34101;53.430;-2.224;2023-08-06T11:10:16;3;3;
46681;PMS5003;34101;53.430;-2.224;2023-08-06T11:12:43;3;3;
46681;PMS5003;34101;53.430;-2.224;2023-08-06T11:15:11;4;3;
46681;PMS5003;34101;53.430;-2.224;2023-08-06T11:17:40;2;2;
46681;PMS5003;34101;53.430;-2.224;2023-08-06T11:20:08;3;3;
46681;PMS5003;34101;53.430;-2.224;2023-08-06T11:22:36;2;2;
46681;PMS5003;34101;53.430;-2.224;2023-08-06T11:25:05;3;3;
46681;PMS5003;34101;53.430;-2.224;2023-08-06T11:27:33;4;4;
46681;PMS5003;34101;53.430;-2.224;2023-08-06T11:30:01;3;3;
46681;PMS5003;34101;53.430;-2.224;2023-08-06T11:32:28;3;3;
46681;PMS5003;34101;53.430;-2.224;2023-08-06T11:34:55;5;4;
46681;PMS5003;34101;53.430;-2.224;2023-08-06T11:37:23;5;3;
46681;PMS5003;34101;53.430;-2.224;2023-08-06T11:39:50;2;2;
46681;PMS5003;34101;53.430;-2.224;2023-08-06T11:42:18;2;2;
46681;PMS5003;34101;53.430;-2.224;2023-08-06T11:44:45;2;2;
46681;PMS5003;34101;53.430;-2.224;2023-08-06T11:47:13;2;2;
46681;PMS5003;34101;53.430;-2.224;2023-08-06T11:49:43;3;3;
46681;PMS5003;34101;53.430;-2.224;2023-08-06T11:52:14;4;3;
46681;PMS5003;34101;53.430;-2.224;2023-08-06T11:54:42;4;3;
46681;PMS5003;34101;53.430;-2.224;2023-08-06T11:57:10;1;1;
46681;PMS5003;34101;53.430;-2.224;2023-08-06T11:59:37;4;2;
46681;PMS5003;34101;53.430;-2.224;2023-08-06T12:02:05;3;3;
46681;PMS5003;34101;53.430;-2.224;2023-08-06T12:04:56;2;2;
46681;PMS5003;34101;53.430;-2.224;2023-08-06T12:07:26;3;2;
46681;PMS5003;34101;53.430;-2.224;2023-08-06T12:09:55;3;2;
46681;PMS5003;34101;53.430;-2.224;2023-08-06T12:12:22;2;2;
46681;PMS5003;34101;53.430;-2.224;2023-08-06T12:14:49;2;2;
46681;PMS5003;34101;53.430;-2.224;2023-08-06T12:17:17;0;0;
46681;PMS5003;34101;53.430;-2.224;2023-08-06T12:19:44;3;1;
46681;PMS5003;34101;53.430;-2.224;2023-08-06T12:22:12;4;3;
46681;PMS5003;34101;53.430;-2.224;2023-08-06T12:24:39;1;1;
46681;PMS5003;34101;53.430;-2.224;2023-08-06T12:27:06;0;0;
46681;PMS5003;34101;53.430;-2.224;2023-08-06T12:29:34;2;2;
46681;PMS5003;34101;53.430;-2.224;2023-08-06T12:32:01;2;2;
46681;PMS5003;34101;53.430;-2.224;2023-08-06T12:34:30;2;2;
46681;PMS5003;34101;53.430;-2.224;2023-08-06T12:36:58;2;2;
46681;PMS5003;34101;53.430;-2.224;2023-08-06T12:39:26;3;3;
46681;PMS5003;34101;53.430;-2.224;2023-08-06T12:41:54;3;3;
46681;PMS5003;34101;53.430;-2.224;2023-08-06T12:44:21;1;1;
46681;PMS5003;34101;53.430;-2.224;2023-08-06T12:46:48;0;0;
46681;PMS5003;34101;53.430;-2.224;2023-08-06T12:49:16;1;1;
46681;PMS5003;34101;53.430;-2.224;2023-08-06T12:51:43;2;2;
46681;PMS5003;34101;53.430;-2.224;2023-08-06T12:54:11;2;2;
46681;PMS5003;34101;53.430;-2.224;2023-08-06T12:56:38;2;2;
46681;PMS5003;34101;53.430;-2.224;2023-08-06T12:59:05;2;2;
46681;PMS5003;34101;53.430;-2.224;2023-08-06T13:01:33;1;1;
46681;PMS5003;34101;53.430;-2.224;2023-08-06T13:04:00;1;1;
46681;PMS5003;34101;53.430;-2.224;2023-08-06T13:06:28;1;1;
46681;PMS5003;34101;53.430;-2.224;2023-08-06T13:08:55;2;2;
46681;PMS5003;34101;53.430;-2.224;2023-08-06T13:11:22;1;1;
46681;PMS5003;34101;53.430;-2.224;2023-08-06T13:13:50;1;1;
46681;PMS5003;34101;53.430;-2.224;2023-08-06T13:16:17;1;1;
46681;PMS5003;34101;53.430;-2.224;2023-08-06T13:18:45;1;1;
46681;PMS5003;34101;53.430;-2.224;2023-08-06T13:21:12;1;1;
46681;PMS5003;34101;53.430;-2.224;2023-08-06T13:23:40;3;3;
46681;PMS5003;34101;53.430;-2.224;2023-08-06T13:26:07;2;2;
46681;PMS5003;34101;53.430;-2.224;2023-08-06T13:28:34;1;1;
46681;PMS5003;34101;53.430;-2.224;2023-08-06T13:31:02;1;1;
46681;PMS5003;34101;53.430;-2.224;2023-08-06T13:33:29;0;0;
46681;PMS5003;34101;53.430;-2.224;2023-08-06T13:35:57;1;1;
46681;PMS5003;34101;53.430;-2.224;2023-08-06T13:38:24;3;3;
46681;PMS5003;34101;53.430;-2.224;2023-08-06T13:40:51;3;3;
46681;PMS5003;34101;53.430;-2.224;2023-08-06T13:43:19;1;1;
46681;PMS5003;34101;53.430;-2.224;2023-08-06T13:45:46;3;3;
46681;PMS5003;34101;53.430;-2.224;2023-08-06T13:48:14;2;2;
46681;PMS5003;34101;53.430;-2.224;2023-08-06T13:50:41;3;3;
46681;PMS5003;34101;53.430;-2.224;2023-08-06T13:53:09;2;2;
46681;PMS5003;34101;53.430;-2.224;2023-08-06T13:55:36;3;3;
46681;PMS5003;34101;53.430;-2.224;2023-08-06T13:58:03;2;2;
46681;PMS5003;34101;53.430;-2.224;2023-08-06T14:00:31;1;1;
46681;PMS5003;34101;53.430;-2.224;2023-08-06T14:02:58;2;2;
46681;PMS5003;34101;53.430;-2.224;2023-08-06T14:05:26;1;1;
46681;PMS5003;34101;53.430;-2.224;2023-08-06T14:07:53;1;1;
46681;PMS5003;34101;53.430;-2.224;2023-08-06T14:10:20;2;2;
46681;PMS5003;34101;53.430;-2.224;2023-08-06T14:12:48;2;2;
46681;PMS5003;34101;53.430;-2.224;2023-08-06T14:15:15;2;2;
46681;PMS5003;34101;53.430;-2.224;2023-08-06T14:17:43;1;1;
46681;PMS5003;34101;53.430;-2.224;2023-08-06T14:20:10;0;0;
46681;PMS5003;34101;53.430;-2.224;2023-08-06T14:22:37;1;1;
46681;PMS5003;34101;53.430;-2.224;2023-08-06T14:25:05;2;2;
46681;PMS5003;34101;53.430;-2.224;2023-08-06T14:27:33;1;1;
46681;PMS5003;34101;53.430;-2.224;2023-08-06T14:30:01;1;1;
46681;PMS5003;34101;53.430;-2.224;2023-08-06T14:32:28;1;1;
46681;PMS5003;34101;53.430;-2.224;2023-08-06T14:34:55;2;2;
46681;PMS5003;34101;53.430;-2.224;2023-08-06T14:37:23;1;1;
46681;PMS5003;34101;53.430;-2.224;2023-08-06T14:39:50;1;1;
46681;PMS5003;34101;53.430;-2.224;2023-08-06T14:42:18;2;1;
46681;PMS5003;34101;53.430;-2.224;2023-08-06T14:44:45;2;2;
46681;PMS5003;34101;53.430;-2.224;2023-08-06T14:47:12;3;3;
46681;PMS5003;34101;53.430;-2.224;2023-08-06T14:49:40;4;1;
46681;PMS5003;34101;53.430;-2.224;2023-08-06T14:52:07;2;1;
46681;PMS5003;34101;53.430;-2.224;2023-08-06T14:54:35;3;2;
46681;PMS5003;34101;53.430;-2.224;2023-08-06T14:57:02;2;2;
46681;PMS5003;34101;53.430;-2.224;2023-08-06T14:59:30;3;1;
46681;PMS5003;34101;53.430;-2.224;2023-08-06T15:01:57;2;2;
46681;PMS5003;34101;53.430;-2.224;2023-08-06T15:04:24;2;2;
46681;PMS5003;34101;53.430;-2.224;2023-08-06T15:06:52;0;0;
46681;PMS5003;34101;53.430;-2.224;2023-08-06T15:09:20;1;1;
46681;PMS5003;34101;53.430;-2.224;2023-08-06T15:11:47;2;2;
46681;PMS5003;34101;53.430;-2.224;2023-08-06T15:14:15;5;4;
46681;PMS5003;34101;53.430;-2.224;2023-08-06T15:16:42;2;2;
46681;PMS5003;34101;53.430;-2.224;2023-08-06T15:19:10;3;3;
46681;PMS5003;34101;53.430;-2.224;2023-08-06T15:21:37;1;1;
46681;PMS5003;34101;53.430;-2.224;2023-08-06T15:24:04;1;1;
46681;PMS5003;34101;53.430;-2.224;2023-08-06T15:26:32;0;0;
46681;PMS5003;34101;53.430;-2.224;2023-08-06T15:28:59;1;1;
46681;PMS5003;34101;53.430;-2.224;2023-08-06T15:31:31;1;1;
46681;PMS5003;34101;53.430;-2.224;2023-08-06T15:34:03;0;0;
46681;PMS5003;34101;53.430;-2.224;2023-08-06T15:36:31;1;1;
46681;PMS5003;34101;53.430;-2.224;2023-08-06T15:38:59;0;0;
46681;PMS5003;34101;53.430;-2.224;2023-08-06T15:41:27;0;0;
46681;PMS5003;34101;53.430;-2.224;2023-08-06T15:43:54;2;2;
46681;PMS5003;34101;53.430;-2.224;2023-08-06T15:46:21;1;1;
46681;PMS5003;34101;53.430;-2.224;2023-08-06T15:48:49;2;2;
46681;PMS5003;34101;53.430;-2.224;2023-08-06T15:51:16;1;1;
46681;PMS5003;34101;53.430;-2.224;2023-08-06T15:53:44;0;0;
46681;PMS5003;34101;53.430;-2.224;2023-08-06T15:56:12;1;1;
46681;PMS5003;34101;53.430;-2.224;2023-08-06T15:58:38;0;0;
46681;PMS5003;34101;53.430;-2.224;2023-08-06T16:01:06;1;1;
46681;PMS5003;34101;53.430;-2.224;2023-08-06T16:03:33;1;1;
46681;PMS5003;34101;53.430;-2.224;2023-08-06T16:06:01;1;1;
46681;PMS5003;34101;53.430;-2.224;2023-08-06T16:08:28;1;1;
46681;PMS5003;34101;53.430;-2.224;2023-08-06T16:10:56;1;1;
46681;PMS5003;34101;53.430;-2.224;2023-08-06T16:13:24;1;1;
46681;PMS5003;34101;53.430;-2.224;2023-08-06T16:15:51;5;2;
46681;PMS5003;34101;53.430;-2.224;2023-08-06T16:18:19;1;1;
46681;PMS5003;34101;53.430;-2.224;2023-08-06T16:20:46;0;0;
46681;PMS5003;34101;53.430;-2.224;2023-08-06T16:23:14;1;1;
46681;PMS5003;34101;53.430;-2.224;2023-08-06T16:25:41;1;1;
46681;PMS5003;34101;53.430;-2.224;2023-08-06T16:28:08;1;1;
46681;PMS5003;34101;53.430;-2.224;2023-08-06T16:30:37;2;1;
46681;PMS5003;34101;53.430;-2.224;2023-08-06T16:33:10;1;1;
46681;PMS5003;34101;53.430;-2.224;2023-08-06T16:35:37;1;1;